KIRS/IRS METAR and TAF weather

Enter ICAO airport designator
Station Type Date Time Source
KIRS METAR 2021/03/02 16:55 UTC NOAA

KIRS 021655Z AUTO 23009KT 190V250 10SM CLR 00/M09 A3025 RMK AO2 T00021092


Station Type Date Time Source
KIRS Decoded METAR 2021/03/02 16:55 UTC NOAA

Sturgis, Kirsch Municipal Airport, MI, United States (KIRS) 41-48-46N 085-26-21W
Mar 02, 2021 - 11:55 AM EST / 2021.03.02 1655 UTC
Wind: from the SW (230 degrees) at 10 MPH (9 KT) (direction variable):0
Visibility: 10 mile(s):0
Sky conditions: clear
Temperature: 32.4 F (0.2 C)
Windchill: 24 F (-4 C):1
Dew Point: 15.4 F (-9.2 C)
Relative Humidity: 49%
Pressure (altimeter): 30.25 in. Hg (1024 hPa)
ob: KIRS 021655Z AUTO 23009KT 190V250 10SM CLR 00/M09 A3025 RMK AO2 T00021092
cycle: 17

Station Type Date Time Source
KIRS TAF UTC NOAA

Error!

Example: see airport list